Time;durP1;ratioP1;P1;durP2;ratioP2;P2;SDS_P1;SDS_P2;PMS_P1;PMS_P2;Temp;Humidity;BMP_temperature;BMP_pressure;BME280_temperature;BME280_humidity;BME280_pressure;Samples;Min_cycle;Max_cycle;Signal;HPM_P1;HPM_P2
2021/07/18 00:00:32;;;;;;;4.80;4.60;;;20.60;99.90;;;;;;4917902;29;20208;-68
2021/07/18 00:02:58;;;;;;;5.40;5.10;;;20.60;99.90;;;;;;4901856;29;20186;-71
2021/07/18 00:05:23;;;;;;;5.30;4.90;;;20.60;99.90;;;;;;4917697;29;20536;-68
2021/07/18 00:07:49;;;;;;;5.07;4.77;;;20.60;99.90;;;;;;4901333;29;20245;-68
2021/07/18 00:10:15;;;;;;;5.67;5.10;;;20.50;99.90;;;;;;4918184;29;20211;-77
2021/07/18 00:12:42;;;;;;;5.60;5.20;;;20.50;99.90;;;;;;4917763;29;20418;-69
2021/07/18 00:15:10;;;;;;;4.90;4.70;;;20.50;99.90;;;;;;4918194;29;20198;-67
2021/07/18 00:17:37;;;;;;;5.70;5.17;;;20.50;99.90;;;;;;4917723;29;20406;-68
2021/07/18 00:20:06;;;;;;;4.97;4.67;;;20.50;99.90;;;;;;4917979;29;20433;-68
2021/07/18 00:22:32;;;;;;;5.17;4.67;;;20.40;99.90;;;;;;4917651;29;20418;-69
2021/07/18 00:24:58;;;;;;;5.37;4.87;;;20.40;99.90;;;;;;4917897;29;20468;-69
2021/07/18 00:27:24;;;;;;;5.60;5.10;;;20.40;99.90;;;;;;4917603;29;20209;-69
2021/07/18 00:29:49;;;;;;;5.50;5.10;;;20.40;99.90;;;;;;4918669;29;20194;-69
2021/07/18 00:32:15;;;;;;;4.90;4.60;;;20.40;99.90;;;;;;4917754;29;20230;-70
2021/07/18 00:34:41;;;;;;;4.97;4.67;;;20.40;99.90;;;;;;4917564;29;20197;-70
2021/07/18 00:37:06;;;;;;;6.00;5.50;;;20.40;99.90;;;;;;4918343;29;20174;-69
2021/07/18 00:39:32;;;;;;;5.77;5.37;;;20.40;99.90;;;;;;4917157;29;20190;-69
2021/07/18 00:41:58;;;;;;;5.80;5.30;;;20.40;99.90;;;;;;4918167;29;20547;-68
2021/07/18 00:44:24;;;;;;;5.20;4.90;;;20.30;99.90;;;;;;4917361;29;20544;-69
2021/07/18 00:46:49;;;;;;;5.53;5.10;;;20.30;99.90;;;;;;4917876;29;20202;-69
2021/07/18 00:49:15;;;;;;;5.23;4.93;;;20.30;99.90;;;;;;4917857;29;20193;-68
2021/07/18 00:51:41;;;;;;;5.70;5.30;;;20.30;99.90;;;;;;4917186;29;20303;-67
2021/07/18 00:54:07;;;;;;;4.90;4.60;;;20.30;99.90;;;;;;4917950;29;20175;-69
2021/07/18 00:56:33;;;;;;;5.43;4.90;;;20.30;99.90;;;;;;4916507;29;20182;-68
2021/07/18 00:58:59;;;;;;;5.17;4.87;;;20.20;99.90;;;;;;4917618;29;20188;-69
2021/07/18 01:01:27;;;;;;;5.60;5.20;;;20.20;99.90;;;;;;4917322;29;20423;-69
2021/07/18 01:03:53;;;;;;;5.20;4.90;;;20.20;99.90;;;;;;4917812;29;20433;-68
2021/07/18 01:06:19;;;;;;;5.50;5.20;;;20.20;99.90;;;;;;4917344;29;20450;-78
2021/07/18 01:08:44;;;;;;;5.37;4.97;;;20.10;99.90;;;;;;4917093;29;20425;-68
2021/07/18 01:11:10;;;;;;;5.37;5.07;;;20.20;99.90;;;;;;4917488;29;20175;-69
2021/07/18 01:13:36;;;;;;;5.83;5.33;;;20.10;99.90;;;;;;4916234;29;20194;-69
2021/07/18 01:16:02;;;;;;;5.80;5.40;;;20.10;99.90;;;;;;4917038;29;20205;-68
2021/07/18 01:18:27;;;;;;;5.40;5.10;;;20.10;99.90;;;;;;4899336;29;20187;-69
2021/07/18 01:20:53;;;;;;;5.60;5.20;;;20.10;99.90;;;;;;4917139;29;20190;-68
2021/07/18 01:23:20;;;;;;;6.10;5.60;;;20.10;99.90;;;;;;4917170;29;20186;-77
2021/07/18 01:25:52;;;;;;;5.87;5.57;;;20.10;99.90;;;;;;4916893;29;20458;-68
2021/07/18 01:28:20;;;;;;;5.60;5.23;;;20.10;99.90;;;;;;4917141;29;20529;-68
2021/07/18 01:30:46;;;;;;;5.83;5.40;;;20.10;99.90;;;;;;4899623;29;20423;-68
2021/07/18 01:33:12;;;;;;;5.93;5.30;;;20.10;99.90;;;;;;4917061;29;20399;-69
2021/07/18 01:35:38;;;;;;;6.63;5.60;;;20.00;99.90;;;;;;4916259;29;20433;-69
2021/07/18 01:38:07;;;;;;;5.20;4.90;;;20.00;99.90;;;;;;4917398;29;20215;-69
2021/07/18 01:40:33;;;;;;;5.63;5.33;;;20.00;99.90;;;;;;4916223;29;20178;-68
2021/07/18 01:42:59;;;;;;;5.90;5.40;;;20.00;99.90;;;;;;4899255;29;20962;-69
2021/07/18 01:45:25;;;;;;;6.17;5.60;;;19.90;99.90;;;;;;4916244;29;20474;-69
2021/07/18 01:47:51;;;;;;;6.20;5.60;;;19.90;99.90;;;;;;4916692;29;20250;-67
2021/07/18 01:50:18;;;;;;;5.97;5.57;;;19.90;99.90;;;;;;4916923;29;20567;-68
2021/07/18 01:52:44;;;;;;;5.87;5.57;;;19.90;99.90;;;;;;4915694;29;20567;-69
2021/07/18 01:55:11;;;;;;;6.40;5.90;;;19.80;99.90;;;;;;4916690;29;20449;-68
2021/07/18 01:57:38;;;;;;;9.20;5.83;;;19.80;99.90;;;;;;4915890;29;20454;-68
2021/07/18 02:00:06;;;;;;;6.63;6.00;;;19.80;99.90;;;;;;4916666;29;20422;-68
2021/07/18 02:02:32;;;;;;;6.10;5.60;;;19.80;99.90;;;;;;4915976;29;20478;-68
2021/07/18 02:04:57;;;;;;;6.40;6.00;;;19.80;99.90;;;;;;4916651;29;20399;-68
2021/07/18 02:07:27;;;;;;;6.70;6.10;;;19.80;99.90;;;;;;4899461;29;20690;-78
2021/07/18 02:09:56;;;;;;;5.90;5.53;;;19.80;99.90;;;;;;4916953;29;20181;-69
2021/07/18 02:12:21;;;;;;;6.10;5.60;;;19.70;99.90;;;;;;4916701;29;20427;-73
2021/07/18 02:14:47;;;;;;;5.93;5.53;;;19.70;99.90;;;;;;4915633;29;20442;-69
2021/07/18 02:17:13;;;;;;;6.63;6.20;;;19.60;99.90;;;;;;4915920;29;20433;-68
2021/07/18 02:19:39;;;;;;;6.73;6.13;;;19.60;99.90;;;;;;4915103;29;20210;-68
2021/07/18 02:22:05;;;;;;;6.40;6.00;;;19.60;99.90;;;;;;4916072;29;20422;-69
2021/07/18 02:24:31;;;;;;;6.43;5.97;;;19.60;99.90;;;;;;4915590;29;20237;-68
2021/07/18 02:26:58;;;;;;;6.50;6.03;;;19.50;99.90;;;;;;4916198;29;20465;-68
2021/07/18 02:29:24;;;;;;;6.10;5.57;;;19.50;99.90;;;;;;4915734;29;20182;-78
2021/07/18 02:31:53;;;;;;;6.30;5.87;;;19.50;99.90;;;;;;4915660;29;20473;-68
2021/07/18 02:34:20;;;;;;;6.40;5.83;;;19.40;99.90;;;;;;4916202;29;20879;-69
2021/07/18 02:36:46;;;;;;;6.20;5.90;;;19.40;99.90;;;;;;4898127;29;20579;-68
2021/07/18 02:39:13;;;;;;;6.20;5.67;;;19.40;99.90;;;;;;4916036;29;20510;-68
2021/07/18 02:41:38;;;;;;;6.07;5.57;;;19.30;99.90;;;;;;4915274;29;20643;-69
2021/07/18 02:44:06;;;;;;;6.60;6.00;;;19.30;99.90;;;;;;4915780;29;20493;-66
2021/07/18 02:46:32;;;;;;;6.87;6.23;;;19.30;99.90;;;;;;4915032;29;20292;-68
2021/07/18 02:48:58;;;;;;;6.90;6.40;;;19.30;99.90;;;;;;4899318;29;20410;-67
2021/07/18 02:51:24;;;;;;;7.13;6.63;;;19.30;99.90;;;;;;4915786;29;20409;-69
2021/07/18 02:53:50;;;;;;;6.30;5.80;;;19.30;99.90;;;;;;4915091;29;20186;-69
2021/07/18 02:56:15;;;;;;;6.90;6.30;;;19.20;99.90;;;;;;4915523;29;20415;-69
2021/07/18 02:58:41;;;;;;;6.40;5.90;;;19.20;99.90;;;;;;4898235;29;20194;-69
2021/07/18 03:01:07;;;;;;;6.20;5.80;;;19.20;99.90;;;;;;4916014;29;20261;-68
2021/07/18 03:03:33;;;;;;;6.73;6.27;;;19.20;99.90;;;;;;4915013;29;20186;-69
2021/07/18 03:05:58;;;;;;;6.60;6.20;;;19.20;99.90;;;;;;4915899;29;20210;-69
2021/07/18 03:08:24;;;;;;;7.17;6.67;;;19.10;99.90;;;;;;4915699;29;20186;-68
2021/07/18 03:10:50;;;;;;;7.13;6.63;;;19.10;99.90;;;;;;4914902;29;20281;-69
2021/07/18 03:13:15;;;;;;;7.43;6.83;;;19.10;99.90;;;;;;4915948;29;20182;-72
2021/07/18 03:15:41;;;;;;;6.23;5.83;;;19.10;99.90;;;;;;4915211;29;20553;-69
2021/07/18 03:18:08;;;;;;;6.20;5.80;;;19.00;99.90;;;;;;4915810;29;20266;-68
2021/07/18 03:20:34;;;;;;;6.60;6.10;;;19.00;99.90;;;;;;4915063;29;20182;-69
2021/07/18 03:23:00;;;;;;;7.30;6.70;;;19.00;99.90;;;;;;4915745;29;20529;-69
2021/07/18 03:25:26;;;;;;;6.90;6.40;;;18.90;99.90;;;;;;4898555;29;20955;-76
2021/07/18 03:27:52;;;;;;;7.80;7.20;;;18.90;99.90;;;;;;4915476;29;20422;-69
2021/07/18 03:30:20;;;;;;;6.83;6.33;;;18.90;99.90;;;;;;4915666;29;20209;-68
2021/07/18 03:32:45;;;;;;;7.27;6.70;;;18.90;99.90;;;;;;4915603;29;20228;-68
2021/07/18 03:35:12;;;;;;;7.80;7.20;;;18.90;99.90;;;;;;4918939;29;20434;-67
2021/07/18 03:37:38;;;;;;;8.27;7.77;;;18.90;99.90;;;;;;4918571;29;20531;-68
2021/07/18 03:40:07;;;;;;;7.50;7.00;;;18.80;99.90;;;;;;4919256;29;20451;-69
2021/07/18 03:42:33;;;;;;;7.67;7.17;;;18.90;99.90;;;;;;4918359;29;20521;-69
2021/07/18 03:44:59;;;;;;;7.70;7.10;;;18.80;99.90;;;;;;4918721;29;20973;-68
2021/07/18 03:47:24;;;;;;;7.80;7.20;;;18.80;99.90;;;;;;4919043;29;20649;-67
2021/07/18 03:49:50;;;;;;;7.23;6.73;;;18.80;99.90;;;;;;4918303;29;20775;-68
2021/07/18 03:52:16;;;;;;;7.20;6.70;;;18.70;99.90;;;;;;4918555;29;20187;-68
2021/07/18 03:54:41;;;;;;;7.30;6.70;;;18.70;99.90;;;;;;4901714;29;20296;-68
2021/07/18 03:57:07;;;;;;;8.03;7.43;;;18.70;99.90;;;;;;4918885;29;20547;-68
2021/07/18 03:59:33;;;;;;;7.40;6.80;;;18.70;99.90;;;;;;4917776;29;20185;-70
2021/07/18 04:01:58;;;;;;;6.43;6.03;;;18.80;99.90;;;;;;4902017;29;20178;-68
2021/07/18 04:04:26;;;;;;;6.93;6.43;;;18.70;99.90;;;;;;4918825;29;20237;-68
2021/07/18 04:06:51;;;;;;;6.97;6.37;;;18.80;99.90;;;;;;4917943;29;20206;-68
2021/07/18 04:09:17;;;;;;;7.07;6.60;;;18.70;99.90;;;;;;4918408;29;20994;-68
2021/07/18 04:11:43;;;;;;;6.30;5.90;;;18.80;99.90;;;;;;4917954;29;20394;-68
2021/07/18 04:14:09;;;;;;;6.87;6.37;;;18.70;99.90;;;;;;4901631;29;20187;-68
2021/07/18 04:16:34;;;;;;;9.00;6.30;;;18.80;99.90;;;;;;4917636;29;20273;-68
2021/07/18 04:19:00;;;;;;;6.90;6.30;;;18.70;99.90;;;;;;4918562;29;20231;-68
2021/07/18 04:21:26;;;;;;;6.90;6.40;;;18.70;99.90;;;;;;4918531;29;20209;-69
2021/07/18 04:23:52;;;;;;;7.20;6.60;;;18.70;99.90;;;;;;4917754;29;20182;-68
2021/07/18 04:26:17;;;;;;;8.27;7.57;;;18.70;99.90;;;;;;4918382;29;20461;-68
2021/07/18 04:28:43;;;;;;;7.87;7.17;;;18.70;99.90;;;;;;4917330;29;20205;-69
2021/07/18 04:31:09;;;;;;;7.80;7.10;;;18.70;99.90;;;;;;4918153;29;20819;-68
2021/07/18 04:33:35;;;;;;;8.50;7.70;;;18.70;99.90;;;;;;4917356;29;20631;-69
2021/07/18 04:36:01;;;;;;;8.23;7.10;;;18.80;99.90;;;;;;4918259;29;20190;-68
2021/07/18 04:38:26;;;;;;;8.30;7.70;;;18.80;99.90;;;;;;4917877;29;20201;-68
2021/07/18 04:40:52;;;;;;;7.93;7.30;;;18.80;99.90;;;;;;4917143;29;20449;-68
2021/07/18 04:43:18;;;;;;;8.30;7.60;;;18.80;99.90;;;;;;4917857;29;20182;-68
2021/07/18 04:45:43;;;;;;;7.50;6.87;;;18.80;99.90;;;;;;4916952;29;20214;-68
2021/07/18 04:48:09;;;;;;;7.73;7.13;;;18.90;99.90;;;;;;4918026;29;20695;-68
2021/07/18 04:50:35;;;;;;;8.20;7.60;;;18.90;99.90;;;;;;4917196;29;20179;-78
2021/07/18 04:53:01;;;;;;;9.67;8.77;;;18.90;99.90;;;;;;4918005;29;20179;-68
2021/07/18 04:55:27;;;;;;;10.17;9.27;;;18.90;99.90;;;;;;4917991;29;20921;-68
2021/07/18 04:57:53;;;;;;;10.90;9.80;;;19.00;99.90;;;;;;4900266;29;20189;-68
2021/07/18 05:00:23;;;;;;;10.17;9.33;;;18.90;99.90;;;;;;4928791;29;20417;-68
2021/07/18 05:02:49;;;;;;;10.10;9.20;;;18.90;99.90;;;;;;4935908;29;20229;-68
2021/07/18 05:05:17;;;;;;;10.60;9.50;;;19.00;99.90;;;;;;4936664;29;20454;-67
2021/07/18 05:08:01;;;;;;;9.23;8.37;;;19.00;99.90;;;;;;4936125;29;20489;-68
2021/07/18 05:10:28;;;;;;;9.27;8.30;;;19.10;99.90;;;;;;4912540;29;20453;-69
2021/07/18 05:12:56;;;;;;;10.00;8.37;;;19.10;99.90;;;;;;4916163;29;20454;-68
2021/07/18 05:15:24;;;;;;;9.40;8.60;;;19.20;99.90;;;;;;4916439;29;20956;-69
2021/07/18 05:17:51;;;;;;;10.17;9.13;;;19.20;99.90;;;;;;4916236;29;20423;-69
2021/07/18 05:20:21;;;;;;;9.27;8.30;;;19.30;99.90;;;;;;4916529;29;20418;-68
2021/07/18 05:22:47;;;;;;;8.67;7.97;;;19.30;99.90;;;;;;4916261;29;20493;-68
2021/07/18 05:25:12;;;;;;;8.93;8.23;;;19.30;99.90;;;;;;4917263;29;20513;-68
2021/07/18 05:27:39;;;;;;;8.67;7.97;;;19.40;99.90;;;;;;4899570;29;20411;-68
2021/07/18 05:30:07;;;;;;;8.93;8.03;;;19.40;99.90;;;;;;4916925;29;20269;-68
2021/07/18 05:32:33;;;;;;;8.57;7.87;;;19.40;99.90;;;;;;4917165;29;20462;-78
2021/07/18 05:34:59;;;;;;;8.43;7.63;;;19.50;99.90;;;;;;4921093;29;20945;-68
2021/07/18 05:37:25;;;;;;;7.67;7.00;;;19.50;99.90;;;;;;4936192;29;20413;-68
2021/07/18 05:39:51;;;;;;;7.90;7.23;;;19.50;99.90;;;;;;4935287;29;20409;-68
2021/07/18 05:42:16;;;;;;;8.17;7.50;;;19.60;99.90;;;;;;4918980;29;20178;-68
2021/07/18 05:44:42;;;;;;;8.37;7.67;;;19.60;99.90;;;;;;4934945;29;20270;-68
2021/07/18 05:47:09;;;;;;;7.70;7.03;;;19.70;99.90;;;;;;4935859;29;20217;-68
2021/07/18 05:49:35;;;;;;;7.27;6.77;;;19.80;99.90;;;;;;4928545;29;20634;-77
2021/07/18 05:52:02;;;;;;;11.17;8.10;;;19.80;99.90;;;;;;4916134;29;20504;-68
2021/07/18 05:54:28;;;;;;;7.73;7.03;;;19.80;99.90;;;;;;4916641;29;20409;-68
2021/07/18 05:56:53;;;;;;;7.90;7.30;;;19.80;99.90;;;;;;4915006;29;20430;-68
2021/07/18 05:59:19;;;;;;;7.33;6.73;;;19.90;99.90;;;;;;4916261;29;20646;-68
2021/07/18 06:01:45;;;;;;;10.63;7.90;;;19.90;99.90;;;;;;4915521;29;20193;-69
2021/07/18 06:04:10;;;;;;;11.70;7.93;;;20.00;99.90;;;;;;4900137;29;20265;-68
2021/07/18 06:06:36;;;;;;;7.10;6.60;;;20.00;99.90;;;;;;4899123;29;20206;-77
2021/07/18 06:09:02;;;;;;;7.87;7.17;;;20.00;99.90;;;;;;4899106;29;20186;-68
2021/07/18 06:11:27;;;;;;;9.13;7.97;;;20.10;99.90;;;;;;4916531;29;20178;-68
2021/07/18 06:13:53;;;;;;;8.10;7.40;;;20.10;99.90;;;;;;4915198;29;20196;-68
2021/07/18 06:16:19;;;;;;;7.97;7.10;;;20.20;99.90;;;;;;4916866;29;20623;-68
2021/07/18 06:18:45;;;;;;;7.80;7.13;;;20.20;99.90;;;;;;4915697;29;20179;-68
2021/07/18 06:21:10;;;;;;;8.20;7.50;;;20.30;99.90;;;;;;4915906;29;20178;-68
2021/07/18 06:23:36;;;;;;;8.23;7.47;;;20.30;99.90;;;;;;4916303;29;20649;-78
2021/07/18 06:26:04;;;;;;;8.00;7.30;;;20.30;99.90;;;;;;4914903;29;20622;-68
2021/07/18 06:28:31;;;;;;;8.40;7.63;;;20.40;99.90;;;;;;4916391;29;20182;-68
2021/07/18 06:30:57;;;;;;;7.93;7.20;;;20.40;99.90;;;;;;4914529;29;20466;-68
2021/07/18 06:33:23;;;;;;;7.90;7.17;;;20.50;99.90;;;;;;4916355;29;20449;-68
2021/07/18 06:35:49;;;;;;;7.80;7.10;;;20.60;99.90;;;;;;4898196;29;20430;-68
2021/07/18 06:38:15;;;;;;;7.27;6.77;;;20.60;99.90;;;;;;4916123;29;20182;-68
2021/07/18 06:40:41;;;;;;;8.50;7.27;;;20.70;99.90;;;;;;4915222;29;20433;-69
2021/07/18 06:43:07;;;;;;;10.20;7.60;;;20.80;99.90;;;;;;4915695;29;20535;-68
2021/07/18 06:45:33;;;;;;;7.30;6.67;;;20.80;99.90;;;;;;4898933;29;20454;-68
2021/07/18 06:47:59;;;;;;;7.40;6.70;;;20.90;99.90;;;;;;4915498;29;20464;-71
2021/07/18 06:50:25;;;;;;;7.60;7.10;;;21.00;99.90;;;;;;4915989;29;20241;-71
2021/07/18 06:52:50;;;;;;;6.80;6.20;;;21.10;99.90;;;;;;4914765;29;20261;-73
2021/07/18 06:55:16;;;;;;;6.67;6.07;;;21.10;99.90;;;;;;4914975;29;20182;-72
2021/07/18 06:57:49;;;;;;;6.63;6.03;;;21.30;99.90;;;;;;4914841;29;20193;-80
2021/07/18 07:00:17;;;;;;;6.53;5.80;;;21.40;99.90;;;;;;4915908;29;20175;-72
2021/07/18 07:02:43;;;;;;;7.50;6.67;;;21.40;99.90;;;;;;4914582;29;20429;-76
2021/07/18 07:05:10;;;;;;;7.33;6.53;;;21.60;99.90;;;;;;4915744;29;20834;-72
2021/07/18 07:07:36;;;;;;;6.30;5.90;;;21.70;99.90;;;;;;4918263;29;20431;-72
2021/07/18 07:10:04;;;;;;;7.33;6.70;;;21.80;99.90;;;;;;4918179;29;20414;-72
2021/07/18 07:12:29;;;;;;;6.20;5.70;;;21.90;99.90;;;;;;4919762;29;20597;-72
2021/07/18 07:14:55;;;;;;;5.80;5.40;;;22.00;99.90;;;;;;4918769;29;20514;-72
2021/07/18 07:17:21;;;;;;;5.57;5.17;;;22.10;99.90;;;;;;4918385;29;20639;-73
2021/07/18 07:19:46;;;;;;;6.43;5.90;;;22.10;99.90;;;;;;4904050;29;20623;-74
2021/07/18 07:22:12;;;;;;;5.40;5.00;;;22.20;99.90;;;;;;4919013;29;20182;-71
2021/07/18 07:24:38;;;;;;;6.13;5.53;;;22.30;99.90;;;;;;4919119;29;20221;-71
2021/07/18 07:27:04;;;;;;;6.50;6.00;;;22.40;99.90;;;;;;4917986;29;20198;-73
2021/07/18 07:29:30;;;;;;;5.20;4.80;;;22.40;99.90;;;;;;4919135;29;20194;-72
2021/07/18 07:31:56;;;;;;;5.67;5.27;;;22.50;99.90;;;;;;4901226;29;20517;-72
2021/07/18 07:34:22;;;;;;;5.47;5.07;;;22.60;99.90;;;;;;4919056;29;20635;-72
2021/07/18 07:36:47;;;;;;;6.37;5.70;;;22.60;99.90;;;;;;4918941;29;20645;-72
2021/07/18 07:39:13;;;;;;;5.43;5.00;;;22.70;99.90;;;;;;4919135;29;20508;-72
2021/07/18 07:41:39;;;;;;;5.57;5.07;;;22.80;99.90;;;;;;4918567;29;20275;-72
2021/07/18 07:44:06;;;;;;;5.10;4.80;;;22.80;99.90;;;;;;4918192;29;20560;-72
2021/07/18 07:46:31;;;;;;;5.00;4.70;;;22.90;99.90;;;;;;4918764;29;20213;-72
2021/07/18 07:48:57;;;;;;;5.90;5.40;;;22.90;99.90;;;;;;4918077;29;20422;-71
2021/07/18 07:51:23;;;;;;;5.33;5.00;;;22.90;99.90;;;;;;4919144;29;20294;-72
2021/07/18 07:53:50;;;;;;;6.30;5.90;;;23.00;99.90;;;;;;4918234;29;20270;-72
2021/07/18 07:56:16;;;;;;;7.07;6.60;;;23.00;99.90;;;;;;4918459;29;20241;-72
2021/07/18 07:58:42;;;;;;;7.93;7.37;;;23.10;99.90;;;;;;4918653;29;20457;-82
2021/07/18 08:01:08;;;;;;;6.90;6.50;;;23.20;99.90;;;;;;4918232;29;20486;-72
2021/07/18 08:03:34;;;;;;;7.07;6.40;;;23.30;99.90;;;;;;4917544;29;20883;-72
2021/07/18 08:05:59;;;;;;;5.10;4.80;;;23.50;99.70;;;;;;4916269;29;20213;-73
2021/07/18 08:08:25;;;;;;;6.43;4.93;;;23.60;99.90;;;;;;4918299;29;20635;-72
2021/07/18 08:10:51;;;;;;;5.43;5.03;;;23.60;99.80;;;;;;4917657;29;20631;-72
2021/07/18 08:13:17;;;;;;;5.23;4.73;;;23.80;99.50;;;;;;4918790;29;20185;-72
2021/07/18 08:15:42;;;;;;;5.63;4.83;;;23.90;98.30;;;;;;4918373;29;20218;-81
2021/07/18 08:18:08;;;;;;;5.00;4.60;;;23.90;97.90;;;;;;4917371;29;20197;-71
2021/07/18 08:20:34;;;;;;;8.27;7.50;;;23.90;98.00;;;;;;4918321;29;20258;-72
2021/07/18 08:23:00;;;;;;;13.07;10.20;;;24.00;98.80;;;;;;4918139;29;20184;-72
2021/07/18 08:25:26;;;;;;;7.97;7.13;;;24.10;99.00;;;;;;4918569;29;20481;-72
2021/07/18 08:27:53;;;;;;;9.10;8.20;;;24.30;98.40;;;;;;4917248;29;20210;-72
2021/07/18 08:30:18;;;;;;;14.43;12.93;;;24.40;98.60;;;;;;4918139;29;20427;-71
2021/07/18 08:32:44;;;;;;;10.33;9.33;;;24.50;98.50;;;;;;4918249;29;20465;-73
2021/07/18 08:35:10;;;;;;;4.90;4.40;;;24.60;98.00;;;;;;4918712;29;20186;-75
2021/07/18 08:37:37;;;;;;;5.47;5.00;;;24.70;96.40;;;;;;4915196;29;20681;-71
2021/07/18 08:40:08;;;;;;;48.27;41.17;;;24.70;96.40;;;;;;4917544;29;20438;-71
2021/07/18 08:42:35;;;;;;;31.03;25.23;;;24.80;96.70;;;;;;4918039;29;20920;-71
2021/07/18 08:45:01;;;;;;;19.23;14.50;;;24.90;96.80;;;;;;4917969;29;20505;-71
2021/07/18 08:47:28;;;;;;;8.83;7.60;;;24.90;95.10;;;;;;4918115;29;20422;-71
2021/07/18 08:49:54;;;;;;;9.27;8.03;;;24.90;95.60;;;;;;4917310;29;20795;-71
2021/07/18 08:52:21;;;;;;;13.33;11.90;;;24.90;95.80;;;;;;4918105;29;20414;-71
2021/07/18 08:54:51;;;;;;;10.30;9.33;;;25.00;96.30;;;;;;4917425;29;20415;-71
2021/07/18 08:57:19;;;;;;;8.67;7.97;;;25.10;96.70;;;;;;4918591;29;20445;-71
2021/07/18 08:59:46;;;;;;;5.90;5.50;;;25.20;96.30;;;;;;4918563;29;20413;-85
2021/07/18 09:02:14;;;;;;;8.17;7.37;;;25.40;96.10;;;;;;4917814;29;20462;-71
2021/07/18 09:04:40;;;;;;;92.57;83.20;;;25.50;95.20;;;;;;4928459;29;20911;-71
2021/07/18 09:07:08;;;;;;;425.03;378.80;;;25.60;95.30;;;;;;4917111;29;20463;-71
2021/07/18 09:09:35;;;;;;;26.30;23.10;;;25.70;95.30;;;;;;4917201;29;20191;-71
2021/07/18 09:12:09;;;;;;;6.47;5.83;;;25.90;94.50;;;;;;4916352;29;20899;-71
2021/07/18 09:14:44;;;;;;;8.33;7.53;;;26.00;94.30;;;;;;4917729;29;20451;-71
2021/07/18 09:17:13;;;;;;;13.33;11.97;;;26.10;94.50;;;;;;4915990;29;20414;-72
2021/07/18 09:19:41;;;;;;;6.13;5.63;;;26.20;94.10;;;;;;4913871;29;20426;-72
2021/07/18 09:22:19;;;;;;;4.87;4.57;;;26.30;94.60;;;;;;4906182;29;20449;-71
2021/07/18 09:24:49;;;;;;;5.73;5.10;;;26.40;93.90;;;;;;4916034;29;20411;-74
2021/07/18 09:27:17;;;;;;;6.93;6.33;;;26.50;93.20;;;;;;4915973;29;20450;-71
2021/07/18 09:29:50;;;;;;;6.03;5.53;;;26.60;92.70;;;;;;4897212;29;20466;-71
2021/07/18 09:32:27;;;;;;;8.20;7.53;;;26.70;92.70;;;;;;4917168;29;20542;-71
2021/07/18 09:34:58;;;;;;;5.77;5.40;;;26.80;93.00;;;;;;4916572;29;20820;-71
2021/07/18 09:37:28;;;;;;;7.50;7.00;;;26.70;92.00;;;;;;4917110;29;20427;-71
2021/07/18 09:40:02;;;;;;;5.13;4.77;;;26.80;91.90;;;;;;4916347;29;20414;-71
2021/07/18 09:42:47;;;;;;;8.70;8.00;;;27.00;92.90;;;;;;4917306;29;20418;-71
2021/07/18 09:45:16;;;;;;;6.43;6.03;;;27.10;91.80;;;;;;4916103;29;20437;-71
2021/07/18 09:47:54;;;;;;;7.10;6.40;;;27.30;92.30;;;;;;4916833;29;20918;-71
2021/07/18 09:50:23;;;;;;;8.50;7.70;;;27.40;91.90;;;;;;4916867;29;20933;-71
2021/07/18 09:52:49;;;;;;;11.60;10.40;;;27.40;91.60;;;;;;4898836;29;20419;-76
2021/07/18 09:55:22;;;;;;;10.03;9.13;;;27.50;91.10;;;;;;4915002;29;20430;-71
2021/07/18 09:57:52;;;;;;;8.73;7.43;;;27.40;90.50;;;;;;4915819;29;20186;-85
2021/07/18 10:00:19;;;;;;;4.73;4.50;;;27.40;90.70;;;;;;4916187;29;20502;-71
2021/07/18 10:02:45;;;;;;;5.33;4.83;;;27.50;90.90;;;;;;4915938;29;20992;-71
2021/07/18 10:05:30;;;;;;;4.70;4.40;;;27.60;91.90;;;;;;4915596;29;20442;-72
2021/07/18 10:08:07;;;;;;;8.07;7.40;;;27.70;90.30;;;;;;4914189;29;20200;-71
2021/07/18 10:10:38;;;;;;;5.30;5.00;;;27.80;90.40;;;;;;4899733;29;20418;-71
2021/07/18 10:13:05;;;;;;;5.50;5.20;;;28.00;88.20;;;;;;4915280;29;20433;-71
2021/07/18 10:15:31;;;;;;;7.83;6.93;;;28.10;88.50;;;;;;4915669;29;20791;-71
2021/07/18 10:17:58;;;;;;;5.20;4.90;;;28.10;87.30;;;;;;4915229;29;20426;-71
2021/07/18 10:20:24;;;;;;;5.20;4.90;;;28.00;87.60;;;;;;4916492;29;20442;-71
2021/07/18 10:22:53;;;;;;;5.07;4.80;;;28.00;87.10;;;;;;4915259;29;20485;-79
2021/07/18 10:25:20;;;;;;;10.30;9.37;;;28.10;87.60;;;;;;4915732;29;20458;-71
2021/07/18 10:27:47;;;;;;;11.30;10.10;;;28.10;87.30;;;;;;4909922;29;20441;-70
2021/07/18 10:30:16;;;;;;;7.87;7.27;;;27.90;86.70;;;;;;4914506;29;20433;-70
2021/07/18 10:32:42;;;;;;;8.53;7.53;;;27.80;87.30;;;;;;4918749;29;20465;-71
2021/07/18 10:35:10;;;;;;;7.97;7.17;;;27.80;87.60;;;;;;4915537;29;20415;-71
2021/07/18 10:37:40;;;;;;;11.83;6.97;;;27.60;87.70;;;;;;4916145;29;20510;-71
2021/07/18 10:40:14;;;;;;;5.40;4.90;;;27.40;88.60;;;;;;4914944;29;20430;-71
2021/07/18 10:42:40;;;;;;;5.50;5.17;;;27.40;90.20;;;;;;4915817;29;20430;-69
2021/07/18 10:45:17;;;;;;;11.67;7.70;;;27.50;90.00;;;;;;4915539;29;20417;-72
2021/07/18 10:48:06;;;;;;;5.00;4.70;;;27.70;89.50;;;;;;4915946;29;20182;-71
2021/07/18 10:50:44;;;;;;;6.10;5.67;;;27.80;89.00;;;;;;4915491;29;20430;-71
2021/07/18 10:53:25;;;;;;;9.00;6.07;;;27.80;86.30;;;;;;4915337;29;20415;-72
2021/07/18 10:55:55;;;;;;;6.70;6.30;;;27.90;87.30;;;;;;4897554;29;20439;-73
2021/07/18 10:58:39;;;;;;;6.30;5.90;;;27.60;86.80;;;;;;4912394;29;20482;-73
2021/07/18 11:01:05;;;;;;;4.00;3.80;;;27.60;86.60;;;;;;4915621;29;20422;-73
2021/07/18 11:03:35;;;;;;;4.83;4.60;;;27.60;88.50;;;;;;4914877;29;20438;-72
2021/07/18 11:06:23;;;;;;;5.70;5.30;;;27.60;88.00;;;;;;4914831;29;20818;-72
2021/07/18 11:09:07;;;;;;;6.10;5.70;;;27.90;88.20;;;;;;4915047;29;20453;-71
2021/07/18 11:11:55;;;;;;;5.70;5.30;;;27.80;87.80;;;;;;4915653;29;20490;-70
2021/07/18 11:14:36;;;;;;;17.33;15.70;;;27.60;90.50;;;;;;4915158;29;20617;-71
2021/07/18 11:17:24;;;;;;;46.80;41.30;;;27.60;88.50;;;;;;4914917;29;20422;-72
2021/07/18 11:19:56;;;;;;;16.87;14.30;;;27.70;89.10;;;;;;4896970;29;20455;-71
2021/07/18 11:23:01;;;;;;;25.03;20.33;;;27.70;85.70;;;;;;4919853;29;20437;-71
2021/07/18 11:25:45;;;;;;;14.50;12.13;;;27.60;87.80;;;;;;4934691;29;21017;-70
2021/07/18 11:28:39;;;;;;;16.53;9.73;;;27.30;88.60;;;;;;4931974;29;20420;-74
2021/07/18 11:31:11;;;;;;;10.03;8.97;;;27.20;89.00;;;;;;4932467;29;20461;-71
2021/07/18 11:33:43;;;;;;;4.63;4.23;;;27.00;89.90;;;;;;4915821;29;20470;-71
2021/07/18 11:36:10;;;;;;;7.50;6.90;;;27.10;88.60;;;;;;4914912;29;20807;-71
2021/07/18 11:38:36;;;;;;;7.90;7.20;;;27.00;88.10;;;;;;4915296;29;20430;-71
2021/07/18 11:41:23;;;;;;;6.40;5.90;;;26.90;90.40;;;;;;4898192;29;20419;-71
2021/07/18 11:43:51;;;;;;;7.03;6.53;;;26.80;89.50;;;;;;4915616;29;20181;-72
2021/07/18 11:46:20;;;;;;;8.30;7.70;;;26.80;90.20;;;;;;4914904;29;20458;-71
2021/07/18 11:48:48;;;;;;;5.47;5.00;;;26.60;90.80;;;;;;4915633;29;20410;-71
2021/07/18 11:51:16;;;;;;;5.57;5.27;;;26.50;91.30;;;;;;4934071;29;21142;-71
2021/07/18 11:53:46;;;;;;;4.90;4.60;;;26.80;89.60;;;;;;4936104;29;20785;-78
2021/07/18 11:56:27;;;;;;;5.10;4.70;;;27.10;89.10;;;;;;4937871;29;20413;-77
2021/07/18 11:58:59;;;;;;;5.37;5.07;;;27.30;90.30;;;;;;4938297;29;20418;-78
2021/07/18 12:01:27;;;;;;;5.50;5.23;;;27.50;89.00;;;;;;4938392;29;20461;-77
2021/07/18 12:03:54;;;;;;;5.00;4.70;;;27.70;88.30;;;;;;4938570;29;20422;-77
2021/07/18 12:06:21;;;;;;;4.73;4.30;;;27.90;88.50;;;;;;4938290;29;20838;-77
2021/07/18 12:08:47;;;;;;;5.00;4.60;;;28.10;86.60;;;;;;4938491;29;20412;-77
2021/07/18 12:11:13;;;;;;;5.10;4.80;;;28.20;88.00;;;;;;4937745;29;20496;-77
2021/07/18 12:13:43;;;;;;;4.80;4.50;;;28.40;88.80;;;;;;4938681;29;20178;-78
2021/07/18 12:16:10;;;;;;;5.13;4.73;;;28.40;86.90;;;;;;4937867;29;20445;-78
2021/07/18 12:18:45;;;;;;;5.20;4.90;;;28.50;88.80;;;;;;4938126;29;20413;-78
2021/07/18 12:21:24;;;;;;;6.47;6.07;;;28.60;87.40;;;;;;4937842;29;20438;-78
2021/07/18 12:24:16;;;;;;;7.30;6.80;;;28.70;87.50;;;;;;4938174;29;20429;-77
2021/07/18 12:26:48;;;;;;;5.50;5.20;;;28.80;88.40;;;;;;4929045;29;20559;-79
2021/07/18 12:29:15;;;;;;;5.00;4.70;;;28.90;88.20;;;;;;4937526;29;20755;-80
2021/07/18 12:31:43;;;;;;;5.60;5.30;;;29.00;87.50;;;;;;4938010;29;20457;-81
2021/07/18 12:34:10;;;;;;;6.00;5.60;;;29.10;86.70;;;;;;4937085;29;20445;-80
2021/07/18 12:37:04;;;;;;;5.70;5.20;;;29.10;86.40;;;;;;4939449;29;20444;-81
2021/07/18 12:39:36;;;;;;;151.07;131.37;;;29.10;86.30;;;;;;4934170;29;20402;-81
2021/07/18 12:42:08;;;;;;;21.93;19.93;;;29.10;83.40;;;;;;4933104;29;20410;-80
2021/07/18 12:44:43;;;;;;;5.80;5.40;;;29.20;86.50;;;;;;4937070;29;20453;-84
2021/07/18 12:47:39;;;;;;;5.90;5.50;;;29.20;86.80;;;;;;4936977;29;20870;-83
2021/07/18 12:50:13;;;;;;;5.13;4.83;;;29.20;83.10;;;;;;4920600;29;20529;-83